createdAt,value
2022-09-15T00:03:34.856Z,2.60
2022-09-15T00:08:37.285Z,2.42
2022-09-15T00:13:40.429Z,2.60
2022-09-15T00:18:42.927Z,2.25
2022-09-15T00:23:45.518Z,2.50
2022-09-15T00:28:47.573Z,2.88
2022-09-15T00:33:51.623Z,2.42
2022-09-15T00:38:53.845Z,2.60
2022-09-15T00:44:05.174Z,3.30
2022-09-15T00:49:26.189Z,3.45
2022-09-15T00:55:00.475Z,2.80
2022-09-15T01:00:05.096Z,3.15
2022-09-15T01:05:11.531Z,3.00
2022-09-15T01:10:22.467Z,3.05
2022-09-15T01:15:31.384Z,2.78
2022-09-15T01:20:45.162Z,2.70
2022-09-15T01:26:27.635Z,2.97
2022-09-15T01:32:00.372Z,4.50
2022-09-15T01:37:09.596Z,3.70
2022-09-15T01:42:15.650Z,4.00
2022-09-15T01:47:19.173Z,4.03
2022-09-15T01:52:23.370Z,3.75
2022-09-15T01:57:25.541Z,3.80
2022-09-15T02:02:37.830Z,4.25
2022-09-15T02:08:15.064Z,3.83
2022-09-15T02:13:40.060Z,3.78
2022-09-15T02:18:59.134Z,4.53
2022-09-15T02:24:07.294Z,4.57
2022-09-15T02:29:13.092Z,4.03
2022-09-15T02:34:31.185Z,4.50
2022-09-15T02:39:36.634Z,4.57
2022-09-15T02:44:38.392Z,4.78
2022-09-15T02:49:40.264Z,5.55
2022-09-15T02:54:42.089Z,5.90
2022-09-15T03:00:02.636Z,5.68
2022-09-15T03:05:04.738Z,5.50
2022-09-15T03:10:08.278Z,5.32
2022-09-15T03:15:12.645Z,6.38
2022-09-15T03:20:21.572Z,6.05
2022-09-15T03:25:23.591Z,5.43
2022-09-15T03:30:25.345Z,5.72
2022-09-15T03:35:27.084Z,5.75
2022-09-15T03:40:29.121Z,5.65
2022-09-15T03:45:31.021Z,5.45
2022-09-15T03:50:33.816Z,4.95
2022-09-15T03:55:35.559Z,4.75
2022-09-15T04:00:37.720Z,4.07
2022-09-15T04:05:40.055Z,4.60
2022-09-15T04:10:41.884Z,3.85
2022-09-15T04:15:44.503Z,4.13
2022-09-15T04:20:46.239Z,4.10
2022-09-15T04:25:58.533Z,4.28
2022-09-15T04:31:10.601Z,4.40
2022-09-15T04:36:15.538Z,4.38
2022-09-15T04:41:18.974Z,4.70
2022-09-15T04:46:21.206Z,3.75
2022-09-15T04:51:23.629Z,4.18
2022-09-15T04:56:26.078Z,4.47
2022-09-15T05:01:31.229Z,4.60
2022-09-15T05:06:34.737Z,4.85
2022-09-15T05:11:36.491Z,8.90
2022-09-15T05:16:40.110Z,7.30
2022-09-15T05:21:42.076Z,9.13
2022-09-15T05:26:43.845Z,5.90
2022-09-15T05:31:45.705Z,5.05
2022-09-15T05:36:47.509Z,5.00
2022-09-15T05:41:49.486Z,4.63
2022-09-15T05:46:52.476Z,4.55
2022-09-15T05:51:54.267Z,4.00
2022-09-15T05:56:56.020Z,4.80
2022-09-15T06:01:57.878Z,4.47
2022-09-15T06:06:59.657Z,4.85
2022-09-15T06:12:01.630Z,4.35
2022-09-15T06:17:03.401Z,4.20
2022-09-15T06:22:05.216Z,4.25
2022-09-15T06:27:07.746Z,3.92
2022-09-15T06:32:09.539Z,3.70
2022-09-15T06:37:11.849Z,4.45
2022-09-15T06:42:14.094Z,3.78
2022-09-15T06:47:16.719Z,3.85
2022-09-15T06:52:18.584Z,4.10
2022-09-15T06:57:20.463Z,4.32
2022-09-15T07:02:22.500Z,3.58
2022-09-15T07:07:24.665Z,3.42
2022-09-15T07:12:26.421Z,3.55
2022-09-15T07:17:29.121Z,4.07
2022-09-15T07:22:30.981Z,3.13
2022-09-15T07:27:32.726Z,3.45
2022-09-15T07:32:34.626Z,5.22
2022-09-15T07:37:36.651Z,5.28
2022-09-15T07:42:43.225Z,3.55
2022-09-15T07:47:44.993Z,3.45
2022-09-15T07:52:46.782Z,3.47
2022-09-15T07:57:56.072Z,3.28
2022-09-15T08:02:57.889Z,3.00
2022-09-15T08:07:59.639Z,3.45
2022-09-15T08:13:02.868Z,3.25
2022-09-15T08:18:05.790Z,3.50
2022-09-15T08:23:08.201Z,2.75
2022-09-15T08:28:09.933Z,2.92
2022-09-15T08:33:11.731Z,3.38
2022-09-15T08:38:13.531Z,3.50
2022-09-15T08:43:23.713Z,3.17
2022-09-15T08:48:31.270Z,3.08
2022-09-15T08:53:37.899Z,2.88
2022-09-15T08:58:39.795Z,2.90
2022-09-15T09:03:54.617Z,2.78
2022-09-15T09:09:28.396Z,3.13
2022-09-15T09:14:51.051Z,3.53
2022-09-15T09:20:11.984Z,2.80
2022-09-15T09:25:27.108Z,3.30
2022-09-15T09:30:32.973Z,3.33
2022-09-15T09:35:44.998Z,4.38
2022-09-15T09:40:47.862Z,3.80
2022-09-15T09:45:50.244Z,3.63
2022-09-15T09:50:52.401Z,3.50
2022-09-15T09:56:14.244Z,3.33
2022-09-15T10:01:21.738Z,3.05
2022-09-15T10:06:23.689Z,3.05
2022-09-15T10:11:42.515Z,2.67
2022-09-15T10:16:44.715Z,2.88
2022-09-15T10:21:46.537Z,3.13
2022-09-15T10:26:48.781Z,2.42
2022-09-15T10:31:50.591Z,2.75
2022-09-15T10:36:55.138Z,2.20
2022-09-15T10:42:18.185Z,10.20
2022-09-15T10:48:03.150Z,2.70
2022-09-15T10:53:25.442Z,2.72
2022-09-15T10:58:51.957Z,2.88
2022-09-15T11:04:11.850Z,3.22
2022-09-15T11:09:17.680Z,3.22
2022-09-15T11:14:34.089Z,3.60
2022-09-15T11:20:00.240Z,2.90
2022-09-15T11:25:14.799Z,3.20
2022-09-15T11:30:25.254Z,3.05
2022-09-15T11:35:34.360Z,3.10
2022-09-15T11:40:40.145Z,2.40
2022-09-15T11:45:49.751Z,2.10
2022-09-15T11:50:56.785Z,2.05
2022-09-15T11:56:07.396Z,1.20
2022-09-15T12:01:11.922Z,1.48
2022-09-15T12:06:27.038Z,1.02
2022-09-15T12:11:32.288Z,1.33
2022-09-15T12:16:35.117Z,1.00
2022-09-15T12:21:48.841Z,0.75
2022-09-15T12:26:50.776Z,1.00
2022-09-15T12:32:39.012Z,0.73
2022-09-15T12:37:44.427Z,0.83
2022-09-15T12:42:46.308Z,0.63
2022-09-15T12:48:08.077Z,0.68
2022-09-15T12:53:14.279Z,0.70
2022-09-15T12:58:19.577Z,0.60
2022-09-15T13:08:46.765Z,0.75
2022-09-15T13:14:10.564Z,0.77
2022-09-15T13:19:15.641Z,0.88
2022-09-15T13:24:22.237Z,0.90
2022-09-15T13:29:25.650Z,0.82
2022-09-15T13:35:09.710Z,1.02
2022-09-15T13:40:32.824Z,0.68
2022-09-15T13:45:57.198Z,1.08
2022-09-15T13:51:01.969Z,1.38
2022-09-15T13:56:08.311Z,1.13
2022-09-15T14:01:11.569Z,1.10
2022-09-15T14:06:18.948Z,0.95
2022-09-15T14:11:37.388Z,1.00
2022-09-15T14:16:39.696Z,1.20
2022-09-15T14:21:56.236Z,1.40
2022-09-15T14:27:08.127Z,1.15
2022-09-15T14:32:18.986Z,1.17
2022-09-15T14:37:29.424Z,2.03
2022-09-15T14:42:39.776Z,1.58
2022-09-15T14:47:43.411Z,2.50
2022-09-15T14:52:53.246Z,1.23
2022-09-15T14:58:23.148Z,1.20
2022-09-15T15:03:49.996Z,1.42
2022-09-15T15:09:03.465Z,1.77
2022-09-15T15:14:12.586Z,1.67
2022-09-15T15:19:41.337Z,1.33
2022-09-15T15:24:44.812Z,2.10
2022-09-15T15:29:47.936Z,2.25
2022-09-15T15:35:00.287Z,1.80
2022-09-15T15:40:07.375Z,1.60
2022-09-15T15:45:12.310Z,1.77
2022-09-15T15:50:20.771Z,1.85
2022-09-15T15:55:25.304Z,1.65
2022-09-15T16:00:36.656Z,1.38
2022-09-15T16:05:40.629Z,2.05
2022-09-15T16:10:46.174Z,1.80
2022-09-15T16:15:48.463Z,2.13
2022-09-15T16:20:50.436Z,2.28
2022-09-15T16:26:01.512Z,2.20
2022-09-15T16:31:03.503Z,2.33
2022-09-15T16:36:08.669Z,2.83
2022-09-15T16:41:23.408Z,2.70
2022-09-15T16:46:25.314Z,2.40
2022-09-15T16:51:30.845Z,3.10
2022-09-15T16:56:33.291Z,3.42
2022-09-15T17:01:35.117Z,3.45
2022-09-15T17:06:36.917Z,3.60
2022-09-15T17:11:39.105Z,3.65
2022-09-15T17:16:40.894Z,3.22
2022-09-15T17:21:42.645Z,3.30
2022-09-15T17:26:44.373Z,3.47
2022-09-15T17:31:46.253Z,3.13
2022-09-15T17:36:48.110Z,4.20
2022-09-15T17:41:49.952Z,7.35
2022-09-15T17:46:51.762Z,3.55
2022-09-15T17:51:53.581Z,3.80
2022-09-15T17:56:55.386Z,3.53
2022-09-15T18:01:57.321Z,3.55
2022-09-15T18:06:59.170Z,3.88
2022-09-15T18:12:01.258Z,4.00
2022-09-15T18:17:03.147Z,3.95
2022-09-15T18:22:04.957Z,4.75
2022-09-15T18:27:06.793Z,4.18
2022-09-15T18:32:08.987Z,4.00
2022-09-15T18:37:10.749Z,4.20
2022-09-15T18:42:12.593Z,4.60
2022-09-15T18:47:14.386Z,4.75
2022-09-15T18:52:16.165Z,4.63
2022-09-15T18:57:18.144Z,4.50
2022-09-15T19:02:21.245Z,4.32
2022-09-15T19:07:26.334Z,4.45
2022-09-15T19:12:30.156Z,4.95
2022-09-15T19:17:32.245Z,6.43
2022-09-15T19:22:34.957Z,5.32
2022-09-15T19:27:38.540Z,4.82
2022-09-15T19:32:41.082Z,4.60
2022-09-15T19:37:44.060Z,5.00
2022-09-15T19:42:46.093Z,4.90
2022-09-15T19:47:48.895Z,5.07
2022-09-15T19:52:50.656Z,5.30
2022-09-15T19:57:52.518Z,6.50
2022-09-15T20:02:54.446Z,4.90
2022-09-15T20:07:58.112Z,4.55
2022-09-15T20:12:59.909Z,5.18
2022-09-15T20:18:02.268Z,5.82
2022-09-15T20:23:04.117Z,5.45
2022-09-15T20:28:05.898Z,6.15
2022-09-15T20:33:07.844Z,7.35
2022-09-15T20:38:09.702Z,6.45
2022-09-15T20:43:12.026Z,6.55
2022-09-15T20:48:13.910Z,6.50
2022-09-15T20:53:15.749Z,5.30
2022-09-15T20:58:17.628Z,8.55
2022-09-15T21:03:19.714Z,9.32
2022-09-15T21:08:21.496Z,9.10
2022-09-15T21:13:23.379Z,9.52
2022-09-15T21:18:33.818Z,9.73
2022-09-15T21:23:44.290Z,9.82
2022-09-15T21:28:46.691Z,8.52
2022-09-15T21:33:51.323Z,8.50
2022-09-15T21:38:54.756Z,8.25
2022-09-15T21:43:58.436Z,8.90
2022-09-15T21:49:00.455Z,9.13
2022-09-15T21:54:02.474Z,9.05
2022-09-15T21:59:04.265Z,9.10
2022-09-15T22:04:08.206Z,8.35
2022-09-15T22:09:17.175Z,8.57
2022-09-15T22:14:19.030Z,8.27
2022-09-15T22:19:21.573Z,7.78
2022-09-15T22:24:23.354Z,7.85
2022-09-15T22:29:25.326Z,7.82
2022-09-15T22:34:29.077Z,7.97
2022-09-15T22:39:57.458Z,7.38
2022-09-15T22:44:53.046Z,6.60
2022-09-15T22:49:55.209Z,6.90
2022-09-15T22:54:56.986Z,6.60
2022-09-15T22:59:58.803Z,6.50
2022-09-15T23:05:00.767Z,6.30
2022-09-15T23:10:03.109Z,6.32
2022-09-15T23:15:05.907Z,6.15
2022-09-15T23:20:07.935Z,7.35
2022-09-15T23:25:09.711Z,7.03
2022-09-15T23:30:12.421Z,6.07
2022-09-15T23:35:14.284Z,6.60
2022-09-15T23:40:16.448Z,6.70
2022-09-15T23:45:18.368Z,6.93
2022-09-15T23:50:20.179Z,8.10
2022-09-15T23:55:22.639Z,6.72
